createdAt,value
2022-09-03T00:02:02.443Z,99.90
2022-09-03T00:05:13.841Z,99.90
2022-09-03T00:08:12.746Z,99.90
2022-09-03T00:11:33.182Z,99.90
2022-09-03T00:14:34.332Z,99.90
2022-09-03T00:17:34.697Z,99.90
2022-09-03T00:20:43.330Z,99.90
2022-09-03T00:23:40.260Z,99.90
2022-09-03T00:26:35.870Z,99.90
2022-09-03T00:29:43.636Z,99.90
2022-09-03T00:32:47.390Z,99.90
2022-09-03T00:36:21.034Z,99.90
2022-09-03T00:39:22.198Z,99.90
2022-09-03T00:42:23.692Z,99.90
2022-09-03T00:45:33.979Z,99.90
2022-09-03T00:48:37.283Z,99.90
2022-09-03T00:51:56.446Z,99.90
2022-09-03T00:55:13.044Z,99.90
2022-09-03T00:58:20.737Z,99.90
2022-09-03T01:01:20.416Z,99.90
2022-09-03T01:04:22.326Z,99.90
2022-09-03T01:07:33.890Z,99.90
2022-09-03T01:10:49.172Z,99.90
2022-09-03T01:14:02.624Z,99.90
2022-09-03T01:17:05.313Z,99.90
2022-09-03T01:20:24.048Z,99.90
2022-09-03T01:23:26.766Z,99.90
2022-09-03T01:26:42.197Z,99.90
2022-09-03T01:29:56.241Z,99.90
2022-09-03T01:33:14.853Z,99.90
2022-09-03T01:36:35.716Z,99.90
2022-09-03T01:39:36.925Z,99.90
2022-09-03T01:43:17.283Z,99.90
2022-09-03T01:46:18.973Z,99.90
2022-09-03T01:49:23.176Z,99.90
2022-09-03T01:52:29.742Z,99.90
2022-09-03T01:55:48.014Z,99.90
2022-09-03T01:58:46.308Z,99.90
2022-09-03T02:01:46.637Z,99.90
2022-09-03T02:04:38.881Z,99.90
2022-09-03T02:07:38.844Z,99.90
2022-09-03T02:10:50.836Z,99.90
2022-09-03T02:13:48.707Z,99.90
2022-09-03T02:16:40.988Z,99.90
2022-09-03T02:19:34.653Z,99.90
2022-09-03T02:22:26.921Z,99.90
2022-09-03T02:25:19.192Z,99.90
2022-09-03T02:28:17.144Z,99.90
2022-09-03T02:31:10.337Z,99.90
2022-09-03T02:34:02.814Z,99.90
2022-09-03T02:36:55.589Z,99.90
2022-09-03T02:39:48.117Z,99.90
2022-09-03T02:42:40.459Z,99.90
2022-09-03T02:45:32.699Z,99.90
2022-09-03T02:48:25.511Z,99.90
2022-09-03T02:51:17.794Z,99.90
2022-09-03T02:54:11.129Z,99.90
2022-09-03T02:57:03.915Z,99.90
2022-09-03T02:59:56.112Z,99.90
2022-09-03T03:02:48.611Z,99.90
2022-09-03T03:05:47.806Z,99.90
2022-09-03T03:08:40.594Z,99.90
2022-09-03T03:11:33.244Z,99.90
2022-09-03T03:14:25.523Z,99.90
2022-09-03T03:17:17.768Z,99.90
2022-09-03T03:20:10.468Z,99.90
2022-09-03T03:23:04.088Z,99.90
2022-09-03T03:26:02.130Z,99.90
2022-09-03T03:28:59.213Z,99.90
2022-09-03T03:31:52.318Z,99.90
2022-09-03T03:34:44.521Z,99.90
2022-09-03T03:37:36.758Z,99.90
2022-09-03T03:40:29.023Z,99.90
2022-09-03T03:43:21.210Z,99.90
2022-09-03T03:46:15.090Z,99.90
2022-09-03T03:49:08.852Z,99.90
2022-09-03T03:52:03.188Z,99.90
2022-09-03T03:54:55.582Z,99.90
2022-09-03T03:57:47.843Z,99.90
2022-09-03T04:00:40.020Z,99.90
2022-09-03T04:03:32.271Z,99.90
2022-09-03T04:06:24.730Z,99.90
2022-09-03T04:09:16.947Z,99.90
2022-09-03T04:12:09.128Z,99.90
2022-09-03T04:15:01.305Z,99.90
2022-09-03T04:17:56.262Z,99.90
2022-09-03T04:20:48.437Z,99.90
2022-09-03T04:23:46.098Z,99.90
2022-09-03T04:26:38.525Z,99.90
2022-09-03T04:29:31.334Z,99.90
2022-09-03T04:32:42.060Z,99.90
2022-09-03T04:35:34.413Z,99.90
2022-09-03T04:38:31.931Z,99.90
2022-09-03T04:41:26.791Z,99.90
2022-09-03T04:44:18.970Z,99.90
2022-09-03T04:47:11.154Z,99.90
2022-09-03T04:50:05.493Z,99.90
2022-09-03T04:53:07.636Z,99.90
2022-09-03T04:56:00.582Z,99.90
2022-09-03T04:58:57.994Z,99.90
2022-09-03T05:01:52.695Z,99.90
2022-09-03T05:04:45.063Z,99.90
2022-09-03T05:07:38.809Z,99.90
2022-09-03T05:10:31.725Z,99.90
2022-09-03T05:13:23.934Z,99.90
2022-09-03T05:16:17.759Z,99.90
2022-09-03T05:19:10.785Z,98.20
2022-09-03T05:22:03.164Z,96.30
2022-09-03T05:24:56.321Z,95.10
2022-09-03T05:27:48.761Z,94.60
2022-09-03T05:30:40.945Z,94.30
2022-09-03T05:33:38.072Z,93.50
2022-09-03T05:36:35.626Z,93.20
2022-09-03T05:39:27.915Z,92.10
2022-09-03T05:42:21.958Z,92.70
2022-09-03T05:45:14.166Z,92.30
2022-09-03T05:48:06.333Z,92.70
2022-09-03T05:51:19.005Z,92.70
2022-09-03T05:54:11.299Z,92.20
2022-09-03T05:57:04.016Z,91.90
2022-09-03T05:59:56.546Z,93.90
2022-09-03T06:02:53.148Z,93.40
2022-09-03T06:05:53.268Z,93.70
2022-09-03T06:08:45.446Z,93.90
2022-09-03T06:11:39.486Z,95.60
2022-09-03T06:14:31.742Z,96.70
2022-09-03T06:17:24.051Z,96.00
2022-09-03T06:20:16.385Z,95.90
2022-09-03T06:23:08.560Z,97.80
2022-09-03T06:26:04.942Z,99.00
2022-09-03T06:28:58.092Z,98.90
2022-09-03T06:31:50.935Z,98.90
2022-09-03T06:34:43.233Z,98.00
2022-09-03T06:37:43.128Z,99.30
2022-09-03T06:40:35.402Z,99.10
2022-09-03T06:43:28.516Z,97.90
2022-09-03T06:46:23.229Z,97.10
2022-09-03T06:49:16.300Z,97.10
2022-09-03T06:52:08.566Z,96.90
2022-09-03T06:55:01.138Z,97.00
2022-09-03T06:57:57.099Z,97.40
2022-09-03T07:00:49.988Z,97.00
2022-09-03T07:03:44.305Z,97.10
2022-09-03T07:06:38.815Z,96.80
2022-09-03T07:09:32.381Z,98.70
2022-09-03T07:12:24.617Z,98.00
2022-09-03T07:15:17.440Z,95.70
2022-09-03T07:18:09.599Z,95.40
2022-09-03T07:21:13.809Z,97.30
2022-09-03T07:24:07.193Z,96.80
2022-09-03T07:26:59.369Z,96.20
2022-09-03T07:29:51.528Z,95.90
2022-09-03T07:32:43.706Z,96.60
2022-09-03T07:35:37.183Z,97.50
2022-09-03T07:38:29.390Z,96.90
2022-09-03T07:41:28.411Z,96.20
2022-09-03T07:44:21.481Z,95.40
2022-09-03T07:47:15.069Z,95.40
2022-09-03T07:50:12.085Z,94.80
2022-09-03T07:53:04.280Z,93.90
2022-09-03T07:56:05.314Z,92.60
2022-09-03T07:58:58.372Z,92.80
2022-09-03T08:01:51.049Z,91.30
2022-09-03T08:04:43.545Z,91.50
2022-09-03T08:07:35.697Z,90.80
2022-09-03T08:10:30.663Z,91.00
2022-09-03T08:13:22.864Z,91.40
2022-09-03T08:16:18.439Z,92.10
2022-09-03T08:19:13.358Z,91.70
2022-09-03T08:22:05.895Z,93.30
2022-09-03T08:24:58.144Z,95.10
2022-09-03T08:27:50.394Z,93.50
2022-09-03T08:30:42.590Z,92.20
2022-09-03T08:33:37.707Z,91.60
2022-09-03T08:36:31.392Z,93.40
2022-09-03T08:39:23.646Z,93.70
2022-09-03T08:42:44.441Z,93.50
2022-09-03T08:45:37.193Z,92.70
2022-09-03T08:48:30.001Z,93.80
2022-09-03T08:51:24.987Z,94.60
2022-09-03T08:54:19.629Z,94.60
2022-09-03T08:57:14.313Z,92.70
2022-09-03T09:00:07.060Z,92.80
2022-09-03T09:03:27.108Z,93.70
2022-09-03T09:06:37.423Z,92.00
2022-09-03T09:09:56.958Z,91.20
2022-09-03T09:13:17.396Z,92.00
2022-09-03T09:16:19.485Z,91.10
2022-09-03T09:19:44.750Z,91.20
2022-09-03T09:22:47.403Z,87.80
2022-09-03T09:25:51.211Z,89.20
2022-09-03T09:28:46.815Z,91.70
2022-09-03T09:31:45.315Z,91.20
2022-09-03T09:34:39.144Z,91.20
2022-09-03T09:37:31.435Z,92.20
2022-09-03T09:40:34.795Z,92.10
2022-09-03T09:43:26.967Z,91.40
2022-09-03T09:46:25.584Z,93.20
2022-09-03T09:49:37.023Z,93.50
2022-09-03T09:52:31.666Z,92.20
2022-09-03T09:55:23.970Z,92.30
2022-09-03T09:58:19.655Z,92.20
2022-09-03T10:01:18.746Z,93.90
2022-09-03T10:04:14.129Z,92.40
2022-09-03T10:07:32.095Z,93.10
2022-09-03T10:10:25.699Z,93.20
2022-09-03T10:13:36.233Z,93.80
2022-09-03T10:16:36.625Z,92.80
2022-09-03T10:19:43.593Z,92.50
2022-09-03T10:22:48.347Z,91.90
2022-09-03T10:26:11.372Z,92.30
2022-09-03T10:29:06.527Z,92.00
2022-09-03T10:31:58.676Z,91.80
2022-09-03T10:35:12.682Z,89.60
2022-09-03T10:38:17.485Z,90.90
2022-09-03T10:41:24.939Z,91.70
2022-09-03T10:44:42.816Z,91.10
2022-09-03T10:47:55.434Z,89.70
2022-09-03T10:50:48.740Z,91.30
2022-09-03T10:53:56.046Z,90.30
2022-09-03T10:57:02.920Z,84.50
2022-09-03T11:00:12.846Z,86.80
2022-09-03T11:03:45.049Z,87.90
2022-09-03T11:07:02.326Z,85.20
2022-09-03T11:10:21.755Z,85.90
2022-09-03T11:13:22.354Z,87.80
2022-09-03T11:16:21.655Z,88.30
2022-09-03T11:19:20.687Z,85.40
2022-09-03T11:22:17.570Z,86.60
2022-09-03T11:25:15.858Z,86.60
2022-09-03T11:28:33.648Z,86.80
2022-09-03T11:31:52.952Z,90.00
2022-09-03T11:34:54.577Z,86.70
2022-09-03T11:38:15.206Z,82.10
2022-09-03T11:41:15.343Z,83.10
2022-09-03T11:44:19.939Z,82.30
2022-09-03T11:47:21.695Z,85.40
2022-09-03T11:50:29.296Z,83.00
2022-09-03T11:53:30.173Z,83.20
2022-09-03T11:56:23.029Z,86.40
2022-09-03T11:59:24.419Z,85.80
2022-09-03T12:02:23.604Z,85.20
2022-09-03T12:05:35.143Z,85.80
2022-09-03T12:08:51.850Z,86.40
2022-09-03T12:12:00.604Z,88.90
2022-09-03T12:15:07.437Z,86.60
2022-09-03T12:18:20.113Z,89.50
2022-09-03T12:21:12.776Z,87.60
2022-09-03T12:24:05.086Z,90.20
2022-09-03T12:27:00.790Z,88.60
2022-09-03T12:30:02.107Z,88.30
2022-09-03T12:33:05.590Z,87.80
2022-09-03T12:36:00.124Z,86.20
2022-09-03T12:39:11.794Z,84.90
2022-09-03T12:42:07.266Z,85.50
2022-09-03T12:45:15.793Z,81.40
2022-09-03T12:48:16.357Z,82.50
2022-09-03T12:54:21.386Z,84.50
2022-09-03T12:57:19.980Z,85.80
2022-09-03T13:00:16.406Z,82.60
2022-09-03T13:03:23.175Z,81.70
2022-09-03T13:06:20.333Z,83.10
2022-09-03T13:09:14.416Z,83.80
2022-09-03T13:12:07.890Z,85.40
2022-09-03T13:15:07.822Z,82.20
2022-09-03T13:18:25.068Z,84.20
2022-09-03T13:21:54.701Z,86.10
2022-09-03T13:24:47.026Z,83.80
2022-09-03T13:28:02.519Z,84.00
2022-09-03T13:30:57.897Z,84.60
2022-09-03T13:34:05.226Z,83.70
2022-09-03T13:37:28.050Z,85.10
2022-09-03T13:40:48.591Z,86.00
2022-09-03T13:43:53.765Z,82.70
2022-09-03T13:46:52.074Z,83.80
2022-09-03T13:50:10.590Z,85.40
2022-09-03T13:53:14.873Z,86.60
2022-09-03T13:56:19.377Z,85.80
2022-09-03T13:59:46.967Z,85.20
2022-09-03T14:03:05.384Z,86.20
2022-09-03T14:06:20.731Z,87.10
2022-09-03T14:09:34.893Z,87.30
2022-09-03T14:12:42.502Z,87.00
2022-09-03T14:15:48.611Z,87.20
2022-09-03T14:18:50.872Z,85.00
2022-09-03T14:21:47.690Z,86.10
2022-09-03T14:24:57.983Z,85.20
2022-09-03T14:27:50.320Z,86.10
2022-09-03T14:30:59.125Z,85.70
2022-09-03T14:34:00.616Z,87.70
2022-09-03T14:37:30.348Z,87.20
2022-09-03T14:40:40.158Z,86.00
2022-09-03T14:43:51.155Z,86.30
2022-09-03T14:47:04.641Z,85.80
2022-09-03T14:50:12.914Z,85.50
2022-09-03T14:53:38.644Z,85.30
2022-09-03T14:56:39.638Z,83.60
2022-09-03T14:59:50.274Z,85.20
2022-09-03T15:03:13.057Z,82.50
2022-09-03T15:06:30.797Z,82.60
2022-09-03T15:09:34.108Z,83.30
2022-09-03T15:12:40.558Z,83.60
2022-09-03T15:15:42.758Z,84.20
2022-09-03T15:18:58.651Z,82.60
2022-09-03T15:22:09.711Z,83.90
2022-09-03T15:25:16.852Z,83.80
2022-09-03T15:28:34.406Z,81.40
2022-09-03T15:31:41.441Z,80.80
2022-09-03T15:34:48.386Z,82.10
2022-09-03T15:37:59.482Z,83.00
2022-09-03T15:40:55.489Z,82.90
2022-09-03T15:43:51.214Z,85.00
2022-09-03T15:47:14.247Z,85.90
2022-09-03T15:50:09.523Z,86.00
2022-09-03T15:53:26.057Z,85.00
2022-09-03T15:56:24.738Z,83.80
2022-09-03T15:59:31.686Z,84.50
2022-09-03T16:02:40.014Z,84.30
2022-09-03T16:05:50.977Z,84.40
2022-09-03T16:09:09.178Z,83.50
2022-09-03T16:12:13.287Z,82.60
2022-09-03T16:15:36.475Z,83.40
2022-09-03T16:18:37.002Z,82.70
2022-09-03T16:21:32.904Z,83.90
2022-09-03T16:24:30.472Z,83.80
2022-09-03T16:27:33.656Z,83.90
2022-09-03T16:30:44.739Z,86.20
2022-09-03T16:33:58.074Z,87.20
2022-09-03T16:37:02.535Z,88.20
2022-09-03T16:40:16.495Z,89.40
2022-09-03T16:43:40.221Z,89.60
2022-09-03T16:46:51.657Z,90.50
2022-09-03T16:49:49.860Z,90.40
2022-09-03T16:53:10.307Z,90.70
2022-09-03T16:56:14.234Z,91.10
2022-09-03T16:59:18.682Z,91.60
2022-09-03T17:02:44.427Z,92.30
2022-09-03T17:05:39.864Z,92.30
2022-09-03T17:08:38.709Z,92.90
2022-09-03T17:11:49.399Z,93.30
2022-09-03T17:14:44.572Z,93.50
2022-09-03T17:18:04.141Z,94.00
2022-09-03T17:21:10.630Z,94.40
2022-09-03T17:24:05.672Z,94.70
2022-09-03T17:27:47.594Z,94.90
2022-09-03T17:30:57.220Z,95.40
2022-09-03T17:34:03.323Z,95.50
2022-09-03T17:37:33.297Z,95.50
2022-09-03T17:40:40.329Z,95.90
2022-09-03T17:43:47.469Z,96.30
2022-09-03T17:47:00.402Z,96.60
2022-09-03T17:49:54.466Z,97.30
2022-09-03T17:53:03.145Z,97.10
2022-09-03T17:56:00.750Z,97.70
2022-09-03T17:59:24.172Z,98.10
2022-09-03T18:02:34.648Z,99.00
2022-09-03T18:05:43.455Z,99.70
2022-09-03T18:09:05.860Z,99.90
2022-09-03T18:12:18.455Z,99.90
2022-09-03T18:15:25.945Z,99.90
2022-09-03T18:18:32.440Z,99.90
2022-09-03T18:21:47.168Z,99.90
2022-09-03T18:25:10.502Z,99.90
2022-09-03T18:28:31.199Z,99.90
2022-09-03T18:31:42.223Z,99.90
2022-09-03T18:34:55.072Z,99.90
2022-09-03T18:38:05.938Z,99.90
2022-09-03T18:41:39.319Z,99.90
2022-09-03T18:45:20.978Z,99.90
2022-09-03T18:48:40.170Z,99.90
2022-09-03T18:52:13.091Z,99.90
2022-09-03T18:55:34.221Z,99.90
2022-09-03T18:58:59.264Z,99.90
2022-09-03T19:02:12.290Z,99.90
2022-09-03T19:05:37.523Z,99.90
2022-09-03T19:08:57.358Z,99.90
2022-09-03T19:12:24.145Z,99.90
2022-09-03T19:15:48.524Z,99.90
2022-09-03T19:19:20.686Z,99.90
2022-09-03T19:22:35.592Z,99.90
2022-09-03T19:25:48.616Z,99.90
2022-09-03T19:29:04.263Z,99.90
2022-09-03T19:32:22.489Z,99.90
2022-09-03T19:35:39.174Z,99.90
2022-09-03T19:39:21.295Z,99.90
2022-09-03T19:42:47.958Z,99.90
2022-09-03T19:46:09.386Z,99.90
2022-09-03T19:49:45.012Z,99.90
2022-09-03T19:53:21.879Z,99.90
2022-09-03T19:56:46.980Z,99.90
2022-09-03T19:59:59.145Z,99.90
2022-09-03T20:03:09.862Z,99.90
2022-09-03T20:06:23.438Z,99.90
2022-09-03T20:09:37.364Z,99.90
2022-09-03T20:12:35.624Z,99.90
2022-09-03T20:15:42.070Z,99.90
2022-09-03T20:19:09.004Z,99.90
2022-09-03T20:22:12.503Z,99.90
2022-09-03T20:25:34.629Z,99.90
2022-09-03T20:28:49.439Z,99.90
2022-09-03T20:31:59.990Z,99.90
2022-09-03T20:35:02.723Z,99.90
2022-09-03T20:38:16.665Z,99.90
2022-09-03T20:41:34.790Z,99.90
2022-09-03T20:44:35.771Z,99.90
2022-09-03T20:47:39.211Z,99.90
2022-09-03T20:50:46.770Z,99.90
2022-09-03T20:54:13.868Z,99.90
2022-09-03T20:57:25.127Z,99.90
2022-09-03T21:00:19.647Z,99.90
2022-09-03T21:03:44.523Z,99.90
2022-09-03T21:06:59.069Z,99.90
2022-09-03T21:10:08.262Z,99.90
2022-09-03T21:13:03.419Z,99.90
2022-09-03T21:16:05.025Z,99.90
2022-09-03T21:19:09.572Z,99.90
2022-09-03T21:22:07.233Z,99.90
2022-09-03T21:25:04.881Z,99.90
2022-09-03T21:28:12.753Z,99.90
2022-09-03T21:31:28.922Z,99.90
2022-09-03T21:34:30.083Z,99.90
2022-09-03T21:37:23.994Z,99.90
2022-09-03T21:40:24.417Z,99.90
2022-09-03T21:43:32.973Z,99.90
2022-09-03T21:46:31.191Z,99.90
2022-09-03T21:49:36.983Z,99.90
2022-09-03T21:52:42.323Z,99.90
2022-09-03T21:55:49.442Z,99.90
2022-09-03T21:59:08.682Z,99.90
2022-09-03T22:02:21.671Z,99.90
2022-09-03T22:05:15.281Z,99.90
2022-09-03T22:08:22.888Z,99.90
2022-09-03T22:11:34.795Z,99.90
2022-09-03T22:14:32.898Z,99.90
2022-09-03T22:17:47.061Z,99.90
2022-09-03T22:20:39.568Z,99.90
2022-09-03T22:23:43.804Z,99.90
2022-09-03T22:26:45.264Z,99.90
2022-09-03T22:29:45.076Z,99.90
2022-09-03T22:33:15.462Z,99.90
2022-09-03T22:36:18.193Z,99.90
2022-09-03T22:39:33.950Z,99.90
2022-09-03T22:42:43.450Z,99.90
2022-09-03T22:45:44.457Z,99.90
2022-09-03T22:49:01.661Z,99.90
2022-09-03T22:52:13.234Z,99.90
2022-09-03T22:55:13.770Z,99.90
2022-09-03T22:58:10.301Z,99.90
2022-09-03T23:01:21.174Z,99.90
2022-09-03T23:04:13.252Z,99.90
2022-09-03T23:07:22.324Z,99.90
2022-09-03T23:10:25.861Z,99.90
2022-09-03T23:13:22.502Z,99.90
2022-09-03T23:16:34.175Z,99.90
2022-09-03T23:19:41.185Z,99.90
2022-09-03T23:22:42.136Z,99.90
2022-09-03T23:25:41.157Z,99.90
2022-09-03T23:28:36.763Z,99.90
2022-09-03T23:31:29.083Z,99.90
2022-09-03T23:34:21.504Z,99.90
2022-09-03T23:37:33.878Z,99.90
2022-09-03T23:40:48.719Z,99.90
2022-09-03T23:43:58.305Z,99.90
2022-09-03T23:47:13.527Z,99.90
2022-09-03T23:50:31.054Z,99.90
2022-09-03T23:53:40.001Z,99.90
2022-09-03T23:56:41.394Z,99.90
